createdAt,value
2022-10-20T00:01:18.084Z,1.30
2022-10-20T00:03:45.750Z,1.15
2022-10-20T00:06:18.672Z,1.50
2022-10-20T00:08:46.337Z,0.95
2022-10-20T00:11:15.939Z,0.80
2022-10-20T00:13:44.594Z,1.02
2022-10-20T00:16:12.237Z,0.95
2022-10-20T00:18:39.789Z,0.70
2022-10-20T00:21:08.720Z,1.10
2022-10-20T00:23:37.290Z,1.30
2022-10-20T00:26:07.402Z,1.55
2022-10-20T00:28:34.791Z,1.35
2022-10-20T00:31:01.863Z,1.25
2022-10-20T00:33:28.747Z,1.85
2022-10-20T00:39:01.803Z,1.15
2022-10-20T00:41:29.721Z,1.23
2022-10-20T00:43:59.225Z,1.60
2022-10-20T00:46:42.903Z,1.00
2022-10-20T00:49:28.074Z,1.63
2022-10-20T00:51:55.118Z,1.30
2022-10-20T00:54:26.864Z,0.70
2022-10-20T00:57:12.641Z,1.70
2022-10-20T00:59:40.676Z,1.63
2022-10-20T01:02:09.494Z,2.05
2022-10-20T01:04:38.062Z,1.17
2022-10-20T01:07:05.621Z,1.38
2022-10-20T01:09:32.583Z,1.73
2022-10-20T01:12:20.756Z,0.90
2022-10-20T01:15:13.405Z,1.27
2022-10-20T01:18:04.776Z,1.45
2022-10-20T01:21:09.158Z,1.92
2022-10-20T01:23:57.546Z,1.92
2022-10-20T01:26:42.871Z,1.80
2022-10-20T01:29:14.929Z,0.95
2022-10-20T01:32:05.869Z,0.90
2022-10-20T01:34:53.173Z,1.52
2022-10-20T01:37:48.632Z,0.73
2022-10-20T01:40:28.990Z,0.93
2022-10-20T01:43:01.480Z,1.70
2022-10-20T01:45:32.387Z,1.65
2022-10-20T01:48:03.418Z,1.50
2022-10-20T01:50:31.778Z,1.33
2022-10-20T01:53:17.556Z,1.02
2022-10-20T01:55:44.404Z,0.98
2022-10-20T01:58:20.846Z,1.05
2022-10-20T02:00:51.245Z,1.33
2022-10-20T02:03:36.353Z,1.08
2022-10-20T02:06:21.315Z,1.30
2022-10-20T02:08:54.377Z,0.80
2022-10-20T02:11:46.837Z,1.42
2022-10-20T02:14:33.360Z,1.00
2022-10-20T02:17:06.681Z,2.10
2022-10-20T02:19:37.764Z,1.85
2022-10-20T02:22:06.711Z,0.95
2022-10-20T02:24:37.534Z,1.15
2022-10-20T02:27:15.703Z,1.30
2022-10-20T02:30:04.654Z,1.02
2022-10-20T02:32:34.323Z,1.20
2022-10-20T02:35:06.925Z,1.20
2022-10-20T02:37:52.761Z,1.95
2022-10-20T02:40:19.632Z,2.05
2022-10-20T02:42:46.972Z,1.05
2022-10-20T02:45:13.836Z,1.92
2022-10-20T02:47:40.758Z,1.40
2022-10-20T02:50:08.605Z,1.63
2022-10-20T02:52:36.693Z,1.48
2022-10-20T02:55:04.881Z,2.17
2022-10-20T02:57:31.772Z,1.25
2022-10-20T02:59:58.473Z,0.60
2022-10-20T03:02:25.179Z,1.52
2022-10-20T03:04:51.926Z,2.13
2022-10-20T03:07:18.626Z,1.88
2022-10-20T03:09:45.432Z,1.30
2022-10-20T03:12:12.299Z,2.30
2022-10-20T03:14:39.133Z,1.38
2022-10-20T03:17:05.853Z,1.52
2022-10-20T03:19:32.622Z,1.35
2022-10-20T03:22:17.771Z,1.73
2022-10-20T03:24:44.572Z,1.90
2022-10-20T03:27:11.284Z,1.55
2022-10-20T03:29:38.049Z,2.33
2022-10-20T03:32:04.970Z,1.48
2022-10-20T03:34:31.701Z,1.70
2022-10-20T03:36:58.530Z,1.83
2022-10-20T03:39:25.327Z,1.92
2022-10-20T03:41:52.211Z,1.85
2022-10-20T03:44:18.999Z,2.00
2022-10-20T03:46:45.769Z,1.50
2022-10-20T03:49:12.526Z,2.15
2022-10-20T03:51:39.782Z,2.80
2022-10-20T03:54:06.680Z,1.33
2022-10-20T03:56:33.504Z,1.80
2022-10-20T03:59:18.959Z,1.70
2022-10-20T04:01:46.667Z,2.10
2022-10-20T04:04:13.633Z,1.48
2022-10-20T04:06:40.424Z,1.42
2022-10-20T04:09:07.219Z,1.15
2022-10-20T04:11:34.292Z,1.60
2022-10-20T04:14:00.998Z,1.58
2022-10-20T04:16:27.804Z,1.83
2022-10-20T04:18:55.877Z,1.48
2022-10-20T04:21:22.880Z,2.33
2022-10-20T04:23:49.655Z,0.88
2022-10-20T04:26:16.889Z,2.13
2022-10-20T04:28:43.839Z,1.20
2022-10-20T04:31:10.796Z,2.00
2022-10-20T04:33:37.499Z,1.33
2022-10-20T04:36:07.704Z,1.73
2022-10-20T04:38:35.309Z,1.77
2022-10-20T04:41:07.173Z,1.98
2022-10-20T04:43:34.898Z,1.60
2022-10-20T04:46:08.433Z,1.33
2022-10-20T04:48:37.154Z,1.13
2022-10-20T04:51:08.451Z,1.88
2022-10-20T04:53:35.861Z,1.50
2022-10-20T04:56:04.930Z,2.08
2022-10-20T04:58:32.246Z,1.75
2022-10-20T05:01:08.286Z,1.98
2022-10-20T05:03:36.305Z,2.15
2022-10-20T05:06:16.489Z,2.45
2022-10-20T05:11:31.386Z,1.95
2022-10-20T05:13:58.089Z,2.65
2022-10-20T05:16:25.006Z,1.27
2022-10-20T05:18:54.800Z,1.92
2022-10-20T05:21:23.846Z,2.03
2022-10-20T05:23:59.150Z,2.33
2022-10-20T05:26:27.534Z,1.98
2022-10-20T05:28:54.361Z,1.55
2022-10-20T05:31:23.242Z,2.50
2022-10-20T05:33:52.828Z,2.22
2022-10-20T05:36:21.964Z,2.17
2022-10-20T05:38:50.673Z,1.98
2022-10-20T05:41:20.116Z,2.00
2022-10-20T05:43:51.673Z,1.17
2022-10-20T05:46:20.069Z,2.58
2022-10-20T05:48:47.630Z,2.45
2022-10-20T05:51:20.199Z,2.55
2022-10-20T05:53:47.470Z,1.52
2022-10-20T05:56:36.198Z,1.25
2022-10-20T05:59:03.037Z,2.47
2022-10-20T06:01:49.058Z,1.67
2022-10-20T06:04:18.499Z,2.97
2022-10-20T06:06:45.383Z,2.13
2022-10-20T06:09:12.247Z,2.03
2022-10-20T06:11:39.888Z,2.30
2022-10-20T06:14:08.775Z,1.33
2022-10-20T06:16:36.236Z,2.58
2022-10-20T06:19:03.109Z,1.60
2022-10-20T06:21:49.523Z,2.53
2022-10-20T06:24:17.091Z,2.05
2022-10-20T06:26:44.368Z,1.85
2022-10-20T06:29:16.730Z,2.38
2022-10-20T06:31:48.732Z,2.22
2022-10-20T06:34:18.735Z,2.38
2022-10-20T06:36:46.723Z,2.90
2022-10-20T06:39:19.008Z,2.45
2022-10-20T06:41:50.782Z,2.45
2022-10-20T06:44:39.473Z,1.73
2022-10-20T06:47:10.245Z,2.15
2022-10-20T06:49:55.554Z,2.40
2022-10-20T06:52:22.301Z,2.50
2022-10-20T06:54:48.980Z,1.48
2022-10-20T06:57:15.764Z,1.77
2022-10-20T06:59:42.482Z,1.80
2022-10-20T07:02:12.174Z,1.90
2022-10-20T07:04:39.025Z,2.17
2022-10-20T07:07:05.783Z,2.72
2022-10-20T07:09:32.475Z,2.28
2022-10-20T07:11:59.227Z,3.25
2022-10-20T07:14:26.303Z,1.98
2022-10-20T07:17:11.461Z,2.33
2022-10-20T07:19:38.347Z,2.90
2022-10-20T07:22:05.238Z,2.83
2022-10-20T07:24:32.060Z,1.63
2022-10-20T07:26:58.818Z,1.95
2022-10-20T07:29:25.667Z,3.20
2022-10-20T07:31:52.459Z,1.92
2022-10-20T07:34:25.816Z,2.70
2022-10-20T07:36:54.231Z,3.22
2022-10-20T07:39:21.058Z,2.47
2022-10-20T07:41:48.469Z,2.78
2022-10-20T07:44:16.128Z,2.92
2022-10-20T07:46:43.143Z,2.25
2022-10-20T07:51:57.310Z,3.28
2022-10-20T07:54:24.087Z,2.83
2022-10-20T07:56:50.845Z,3.33
2022-10-20T07:59:17.841Z,2.42
2022-10-20T08:01:44.843Z,2.47
2022-10-20T08:04:11.739Z,2.60
2022-10-20T08:06:39.190Z,3.58
2022-10-20T08:09:07.357Z,2.40
2022-10-20T08:11:34.800Z,3.05
2022-10-20T08:14:01.561Z,3.08
2022-10-20T08:16:28.419Z,2.78
2022-10-20T08:19:05.546Z,3.25
2022-10-20T08:21:32.773Z,3.88
2022-10-20T08:23:59.716Z,3.60
2022-10-20T08:26:26.578Z,3.42
2022-10-20T08:28:54.851Z,3.10
2022-10-20T08:31:22.301Z,3.33
2022-10-20T08:33:52.640Z,3.97
2022-10-20T08:36:21.087Z,3.25
2022-10-20T08:38:48.746Z,3.75
2022-10-20T08:41:24.833Z,2.53
2022-10-20T08:43:55.559Z,3.35
2022-10-20T08:46:31.246Z,2.90
2022-10-20T08:49:25.205Z,2.70
2022-10-20T08:51:52.224Z,2.28
2022-10-20T08:57:41.386Z,2.65
2022-10-20T09:00:16.006Z,2.60
2022-10-20T09:02:43.105Z,2.85
2022-10-20T09:05:13.992Z,2.58
2022-10-20T09:10:36.561Z,1.98
2022-10-20T09:13:21.148Z,3.53
2022-10-20T09:15:54.072Z,2.30
2022-10-20T09:18:21.130Z,3.53
2022-10-20T09:20:56.486Z,2.97
2022-10-20T09:23:41.190Z,3.15
2022-10-20T09:26:24.943Z,2.33
2022-10-20T09:29:14.954Z,3.13
2022-10-20T09:31:44.241Z,3.03
2022-10-20T09:34:26.083Z,3.72
2022-10-20T09:37:18.685Z,4.07
2022-10-20T09:39:55.220Z,2.88
2022-10-20T09:42:34.433Z,3.28
2022-10-20T09:48:00.785Z,4.57
2022-10-20T09:50:34.876Z,3.28
2022-10-20T09:53:04.875Z,3.15
2022-10-20T09:55:42.275Z,2.85
2022-10-20T09:58:38.076Z,3.30
2022-10-20T10:01:17.157Z,3.08
2022-10-20T10:03:46.459Z,3.72
2022-10-20T10:06:31.257Z,4.00
2022-10-20T10:09:02.025Z,4.75
2022-10-20T10:11:35.806Z,3.35
2022-10-20T10:14:04.776Z,3.10
2022-10-20T10:16:50.973Z,3.30
2022-10-20T10:19:22.994Z,2.70
2022-10-20T10:21:56.851Z,3.03
2022-10-20T10:24:38.282Z,2.95
2022-10-20T10:27:25.812Z,4.30
2022-10-20T10:30:12.463Z,3.72
2022-10-20T10:32:44.137Z,6.78
2022-10-20T10:35:24.598Z,4.05
2022-10-20T10:37:53.294Z,3.25
2022-10-20T10:40:41.448Z,4.43
2022-10-20T10:43:29.950Z,3.80
2022-10-20T10:46:00.543Z,2.67
2022-10-20T10:49:20.082Z,3.80
2022-10-20T10:51:55.915Z,3.83
2022-10-20T10:54:59.533Z,3.13
2022-10-20T10:57:31.560Z,4.10
2022-10-20T11:00:41.902Z,3.08
2022-10-20T11:03:17.408Z,4.03
2022-10-20T11:06:17.831Z,3.00
2022-10-20T11:09:06.402Z,3.25
2022-10-20T11:11:39.185Z,3.95
2022-10-20T11:14:15.098Z,3.13
2022-10-20T11:16:59.002Z,2.90
2022-10-20T11:19:43.646Z,3.85
2022-10-20T11:22:42.630Z,3.80
2022-10-20T11:25:25.443Z,3.67
2022-10-20T11:27:52.265Z,2.67
2022-10-20T11:30:22.879Z,3.78
2022-10-20T11:33:05.109Z,2.90
2022-10-20T11:35:47.022Z,3.42
2022-10-20T11:38:40.553Z,3.47
2022-10-20T11:41:16.444Z,3.17
2022-10-20T11:43:50.712Z,3.72
2022-10-20T11:46:42.237Z,3.45
2022-10-20T11:49:12.464Z,4.15
2022-10-20T11:52:06.642Z,3.20
2022-10-20T11:54:50.849Z,2.97
2022-10-20T11:57:36.340Z,3.13
2022-10-20T12:03:14.361Z,3.67
2022-10-20T12:05:59.747Z,3.58
2022-10-20T12:08:51.282Z,3.13
2022-10-20T12:11:33.008Z,3.22
2022-10-20T12:14:14.987Z,3.22
2022-10-20T12:16:59.773Z,4.07
2022-10-20T12:22:13.745Z,3.63
2022-10-20T12:24:42.883Z,2.90
2022-10-20T12:27:09.661Z,4.03
2022-10-20T12:29:36.310Z,3.50
2022-10-20T12:32:21.953Z,3.75
2022-10-20T12:35:28.180Z,2.08
2022-10-20T12:38:02.354Z,2.83
2022-10-20T12:40:41.225Z,3.83
2022-10-20T12:43:25.241Z,2.95
2022-10-20T12:45:52.360Z,3.28
2022-10-20T12:48:24.844Z,2.67
2022-10-20T12:50:52.790Z,4.47
2022-10-20T12:53:24.482Z,3.75
2022-10-20T12:55:59.644Z,3.13
2022-10-20T12:58:27.600Z,4.65
2022-10-20T13:00:54.276Z,5.22
2022-10-20T13:03:44.138Z,3.60
2022-10-20T13:06:41.757Z,3.40
2022-10-20T13:09:10.607Z,2.42
2022-10-20T13:11:40.958Z,3.15
2022-10-20T13:14:13.472Z,3.78
2022-10-20T13:16:46.549Z,3.63
2022-10-20T13:19:21.026Z,3.35
2022-10-20T13:21:49.750Z,3.92
2022-10-20T13:24:27.367Z,2.72
2022-10-20T13:26:57.715Z,3.75
2022-10-20T13:29:43.836Z,3.20
2022-10-20T13:32:40.002Z,4.03
2022-10-20T13:35:20.877Z,3.15
2022-10-20T13:38:03.101Z,4.47
2022-10-20T13:41:20.700Z,3.70
2022-10-20T13:44:04.219Z,3.83
2022-10-20T13:46:59.728Z,2.83
2022-10-20T13:50:05.840Z,3.10
2022-10-20T13:52:46.586Z,2.97
2022-10-20T13:55:51.542Z,4.07
2022-10-20T13:58:22.818Z,3.03
2022-10-20T14:01:01.804Z,3.17
2022-10-20T14:03:30.318Z,3.17
2022-10-20T14:05:58.994Z,3.72
2022-10-20T14:08:26.219Z,4.57
2022-10-20T14:11:01.455Z,3.92
2022-10-20T14:13:34.465Z,3.78
2022-10-20T14:16:04.291Z,5.55
2022-10-20T14:18:39.569Z,3.63
2022-10-20T14:21:19.792Z,2.53
2022-10-20T14:23:49.237Z,3.28
2022-10-20T14:26:19.625Z,3.08
2022-10-20T14:28:48.896Z,3.78
2022-10-20T14:31:16.290Z,3.70
2022-10-20T14:33:47.906Z,3.60
2022-10-20T14:36:29.192Z,3.75
2022-10-20T14:39:00.635Z,3.78
2022-10-20T14:41:31.764Z,4.32
2022-10-20T14:44:31.040Z,4.68
2022-10-20T14:47:18.626Z,3.05
2022-10-20T14:49:52.452Z,3.40
2022-10-20T14:52:21.845Z,4.15
2022-10-20T14:54:50.881Z,3.30
2022-10-20T14:57:17.788Z,2.30
2022-10-20T15:00:06.535Z,3.80
2022-10-20T15:02:42.647Z,3.50
2022-10-20T15:05:31.377Z,3.78
2022-10-20T15:08:07.137Z,4.22
2022-10-20T15:13:26.697Z,3.60
2022-10-20T15:15:55.960Z,2.72
2022-10-20T15:18:24.030Z,3.85
2022-10-20T15:20:55.531Z,4.10
2022-10-20T15:23:29.322Z,3.63
2022-10-20T15:26:13.354Z,3.28
2022-10-20T15:28:43.032Z,3.17
2022-10-20T15:31:12.734Z,3.83
2022-10-20T15:33:40.578Z,5.18
2022-10-20T15:36:16.486Z,3.88
2022-10-20T15:38:43.736Z,4.20
2022-10-20T15:41:15.858Z,3.40
2022-10-20T15:44:12.417Z,3.67
2022-10-20T15:46:39.310Z,3.20
2022-10-20T15:49:06.154Z,3.65
2022-10-20T15:51:35.372Z,3.28
2022-10-20T15:54:02.617Z,3.03
2022-10-20T15:56:29.857Z,4.45
2022-10-20T15:59:15.180Z,3.65
2022-10-20T16:01:42.498Z,3.55
2022-10-20T16:04:26.174Z,3.50
2022-10-20T16:06:58.880Z,3.70
2022-10-20T16:09:46.489Z,3.58
2022-10-20T16:12:13.540Z,2.80
2022-10-20T16:14:40.354Z,4.53
2022-10-20T16:17:07.149Z,3.40
2022-10-20T16:19:33.876Z,2.88
2022-10-20T16:22:00.584Z,3.35
2022-10-20T16:24:27.576Z,3.95
2022-10-20T16:26:54.436Z,3.65
2022-10-20T16:29:21.183Z,4.25
2022-10-20T16:31:48.867Z,2.40
2022-10-20T16:34:35.671Z,3.80
2022-10-20T16:37:02.759Z,3.00
2022-10-20T16:39:48.335Z,2.92
2022-10-20T16:42:15.266Z,3.22
2022-10-20T16:44:42.000Z,3.10
2022-10-20T16:47:10.898Z,2.67
2022-10-20T16:49:37.881Z,1.67
2022-10-20T16:52:04.975Z,2.88
2022-10-20T16:54:31.791Z,3.33
2022-10-20T16:56:58.644Z,2.85
2022-10-20T16:59:25.408Z,4.55
2022-10-20T17:01:54.166Z,3.40
2022-10-20T17:04:22.895Z,4.25
2022-10-20T17:06:50.246Z,2.65
2022-10-20T17:09:17.001Z,3.10
2022-10-20T17:11:43.978Z,3.05
2022-10-20T17:14:11.834Z,3.30
2022-10-20T17:16:40.269Z,3.08
2022-10-20T17:19:06.994Z,2.65
2022-10-20T17:21:56.004Z,2.38
2022-10-20T17:24:24.430Z,3.75
2022-10-20T17:26:51.383Z,3.10
2022-10-20T17:29:22.294Z,2.65
2022-10-20T17:31:52.017Z,2.90
2022-10-20T17:34:18.894Z,2.72
2022-10-20T17:36:45.719Z,3.40
2022-10-20T17:39:16.329Z,3.05
2022-10-20T17:41:43.510Z,2.88
2022-10-20T17:44:10.576Z,4.70
2022-10-20T17:46:38.648Z,2.63
2022-10-20T17:49:05.999Z,3.60
2022-10-20T17:51:51.458Z,2.58
2022-10-20T17:54:18.746Z,3.20
2022-10-20T17:57:04.618Z,3.03
2022-10-20T17:59:38.115Z,4.60
2022-10-20T18:02:14.330Z,3.83
2022-10-20T18:04:41.122Z,3.53
2022-10-20T18:07:07.828Z,3.20
2022-10-20T18:09:53.662Z,3.78
2022-10-20T18:12:20.634Z,3.13
2022-10-20T18:14:47.578Z,2.83
2022-10-20T18:17:14.317Z,2.40
2022-10-20T18:19:41.157Z,3.15
2022-10-20T18:22:08.415Z,2.92
2022-10-20T18:24:36.620Z,3.22
2022-10-20T18:27:03.529Z,4.05
2022-10-20T18:29:30.291Z,3.67
2022-10-20T18:31:57.218Z,3.40
2022-10-20T18:34:24.034Z,3.38
2022-10-20T18:37:09.357Z,3.15
2022-10-20T18:39:36.465Z,2.80
2022-10-20T18:42:03.532Z,2.97
2022-10-20T18:44:30.660Z,3.38
2022-10-20T18:46:58.399Z,2.72
2022-10-20T18:49:25.495Z,4.53
2022-10-20T18:51:52.296Z,3.17
2022-10-20T18:57:41.810Z,3.30
2022-10-20T19:00:09.672Z,1.95
2022-10-20T19:02:57.963Z,3.28
2022-10-20T19:05:27.538Z,2.03
2022-10-20T19:07:54.565Z,2.58
2022-10-20T19:10:21.507Z,4.38
2022-10-20T19:12:48.246Z,4.82
2022-10-20T19:15:15.473Z,4.57
2022-10-20T19:17:42.221Z,3.88
2022-10-20T19:20:09.378Z,4.10
2022-10-20T19:22:36.322Z,3.08
2022-10-20T19:25:03.241Z,3.65
2022-10-20T19:27:29.994Z,2.55
2022-10-20T19:29:56.920Z,3.53
2022-10-20T19:32:23.683Z,3.10
2022-10-20T19:34:50.487Z,2.65
2022-10-20T19:37:17.460Z,4.38
2022-10-20T19:39:44.530Z,3.83
2022-10-20T19:42:11.787Z,2.55
2022-10-20T19:44:39.038Z,2.30
2022-10-20T19:47:24.772Z,4.35
2022-10-20T19:50:10.513Z,3.25
2022-10-20T19:53:15.005Z,3.65
2022-10-20T19:55:41.812Z,3.60
2022-10-20T20:00:36.890Z,3.78
2022-10-20T20:03:03.761Z,2.63
2022-10-20T20:05:30.808Z,3.83
2022-10-20T20:07:57.538Z,3.28
2022-10-20T20:10:24.345Z,3.97
2022-10-20T20:12:51.073Z,4.03
2022-10-20T20:15:17.915Z,3.83
2022-10-20T20:17:44.695Z,4.43
2022-10-20T20:20:11.570Z,5.10
2022-10-20T20:22:38.313Z,2.90
2022-10-20T20:25:05.411Z,3.75
2022-10-20T20:27:32.165Z,4.00
2022-10-20T20:29:59.233Z,4.72
2022-10-20T20:32:26.399Z,4.88
2022-10-20T20:35:12.386Z,4.10
2022-10-20T20:37:39.569Z,3.47
2022-10-20T20:40:07.145Z,4.00
2022-10-20T20:45:38.958Z,3.95
2022-10-20T20:48:08.095Z,3.83
2022-10-20T20:50:35.064Z,3.65
2022-10-20T20:53:01.886Z,4.18
2022-10-20T20:55:28.594Z,3.90
2022-10-20T20:57:55.384Z,5.60
2022-10-20T21:00:22.601Z,5.63
2022-10-20T21:05:36.892Z,3.85
2022-10-20T21:08:03.942Z,4.22
2022-10-20T21:10:30.720Z,3.45
2022-10-20T21:12:57.445Z,4.28
2022-10-20T21:15:24.176Z,4.45
2022-10-20T21:17:51.013Z,4.05
2022-10-20T21:20:17.882Z,4.10
2022-10-20T21:25:29.980Z,5.28
2022-10-20T21:27:56.759Z,5.38
2022-10-20T21:30:42.022Z,4.80
2022-10-20T21:33:08.803Z,6.55
2022-10-20T21:35:35.483Z,3.95
2022-10-20T21:38:02.253Z,4.82
2022-10-20T21:40:28.998Z,6.72
2022-10-20T21:43:14.245Z,6.15
2022-10-20T21:45:41.039Z,5.10
2022-10-20T21:51:20.169Z,6.72
2022-10-20T21:53:47.922Z,5.68
2022-10-20T21:56:15.274Z,4.53
2022-10-20T21:58:42.689Z,5.45
2022-10-20T22:01:15.111Z,4.20
2022-10-20T22:04:00.758Z,5.82
2022-10-20T22:06:27.862Z,6.55
2022-10-20T22:08:57.740Z,7.10
2022-10-20T22:11:30.069Z,7.47
2022-10-20T22:13:57.465Z,7.07
2022-10-20T22:16:30.442Z,5.70
2022-10-20T22:18:59.345Z,6.35
2022-10-20T22:21:27.499Z,6.05
2022-10-20T22:23:56.064Z,7.03
2022-10-20T22:26:25.825Z,4.35
2022-10-20T22:28:53.240Z,6.32
2022-10-20T22:31:20.055Z,6.65
2022-10-20T22:34:05.981Z,7.50
2022-10-20T22:36:32.947Z,7.28
2022-10-20T22:38:59.678Z,6.78
2022-10-20T22:41:26.747Z,6.35
2022-10-20T22:43:53.617Z,5.10
2022-10-20T22:46:20.515Z,7.32
2022-10-20T22:48:47.274Z,8.05
2022-10-20T22:51:32.646Z,5.13
2022-10-20T22:53:59.749Z,6.15
2022-10-20T22:56:26.590Z,5.32
2022-10-20T22:58:54.026Z,7.03
2022-10-20T23:01:22.762Z,5.72
2022-10-20T23:03:50.158Z,6.68
2022-10-20T23:06:23.773Z,4.95
2022-10-20T23:08:53.527Z,7.32
2022-10-20T23:11:21.816Z,7.93
2022-10-20T23:13:49.924Z,6.88
2022-10-20T23:16:16.908Z,5.55
2022-10-20T23:18:43.757Z,6.63
2022-10-20T23:21:12.786Z,6.90
2022-10-20T23:23:39.626Z,7.25
2022-10-20T23:26:07.857Z,6.07
2022-10-20T23:28:35.666Z,6.55
2022-10-20T23:33:58.212Z,6.38
2022-10-20T23:36:25.002Z,7.28
2022-10-20T23:38:51.871Z,7.47
2022-10-20T23:41:18.658Z,5.88
2022-10-20T23:43:45.460Z,8.68
2022-10-20T23:46:12.461Z,6.15
2022-10-20T23:48:40.226Z,5.13
2022-10-20T23:51:25.842Z,7.07
2022-10-20T23:53:52.593Z,7.10
2022-10-20T23:56:19.361Z,6.80
2022-10-20T23:58:46.363Z,7.18
